sensor_id;sensor_type;location;lat;lon;timestamp;temperature;humidity
52675;DHT22;38569;52.722;6.440;2023-05-10T00:02:09;12.80;99.90
52675;DHT22;38569;52.722;6.440;2023-05-10T00:04:35;12.80;99.90
52675;DHT22;38569;52.722;6.440;2023-05-10T00:07:01;12.80;99.90
52675;DHT22;38569;52.722;6.440;2023-05-10T00:09:27;12.80;99.90
52675;DHT22;38569;52.722;6.440;2023-05-10T00:11:52;12.80;99.90
52675;DHT22;38569;52.722;6.440;2023-05-10T00:14:18;12.80;99.90
52675;DHT22;38569;52.722;6.440;2023-05-10T00:16:44;12.80;99.90
52675;DHT22;38569;52.722;6.440;2023-05-10T00:19:10;12.80;99.90
52675;DHT22;38569;52.722;6.440;2023-05-10T00:21:36;12.80;99.90
52675;DHT22;38569;52.722;6.440;2023-05-10T00:24:02;12.80;99.90
52675;DHT22;38569;52.722;6.440;2023-05-10T00:26:27;12.80;99.90
52675;DHT22;38569;52.722;6.440;2023-05-10T00:28:53;12.80;99.90
52675;DHT22;38569;52.722;6.440;2023-05-10T00:31:19;12.80;99.90
52675;DHT22;38569;52.722;6.440;2023-05-10T00:33:44;12.90;99.90
52675;DHT22;38569;52.722;6.440;2023-05-10T00:36:10;12.80;99.90
52675;DHT22;38569;52.722;6.440;2023-05-10T00:38:36;12.80;99.90
52675;DHT22;38569;52.722;6.440;2023-05-10T00:41:02;12.80;99.90
52675;DHT22;38569;52.722;6.440;2023-05-10T00:43:28;12.80;99.90
52675;DHT22;38569;52.722;6.440;2023-05-10T00:45:54;12.80;99.90
52675;DHT22;38569;52.722;6.440;2023-05-10T00:48:20;12.90;99.90
52675;DHT22;38569;52.722;6.440;2023-05-10T00:50:46;12.90;99.90
52675;DHT22;38569;52.722;6.440;2023-05-10T00:53:12;12.90;99.90
52675;DHT22;38569;52.722;6.440;2023-05-10T00:55:41;12.90;99.90
52675;DHT22;38569;52.722;6.440;2023-05-10T01:06:55;12.90;99.90
52675;DHT22;38569;52.722;6.440;2023-05-10T01:09:22;12.90;99.90
52675;DHT22;38569;52.722;6.440;2023-05-10T01:11:48;12.90;99.90
52675;DHT22;38569;52.722;6.440;2023-05-10T01:14:15;12.90;99.90
52675;DHT22;38569;52.722;6.440;2023-05-10T01:16:44;12.80;99.90
52675;DHT22;38569;52.722;6.440;2023-05-10T01:19:20;12.80;99.90
52675;DHT22;38569;52.722;6.440;2023-05-10T01:30:01;12.80;99.90
52675;DHT22;38569;52.722;6.440;2023-05-10T01:35:14;12.80;99.90
52675;DHT22;38569;52.722;6.440;2023-05-10T01:37:49;12.70;99.90
52675;DHT22;38569;52.722;6.440;2023-05-10T01:40:30;12.70;99.90
52675;DHT22;38569;52.722;6.440;2023-05-10T01:43:03;12.70;99.90
52675;DHT22;38569;52.722;6.440;2023-05-10T01:45:50;12.70;99.90
52675;DHT22;38569;52.722;6.440;2023-05-10T01:48:21;12.80;99.90
52675;DHT22;38569;52.722;6.440;2023-05-10T01:50:50;12.70;99.90
52675;DHT22;38569;52.722;6.440;2023-05-10T01:53:18;12.70;99.90
52675;DHT22;38569;52.722;6.440;2023-05-10T01:55:48;12.70;99.90
52675;DHT22;38569;52.722;6.440;2023-05-10T01:58:19;12.70;99.90
52675;DHT22;38569;52.722;6.440;2023-05-10T02:00:47;12.60;99.90
52675;DHT22;38569;52.722;6.440;2023-05-10T02:03:14;12.60;99.90
52675;DHT22;38569;52.722;6.440;2023-05-10T02:05:41;12.60;99.90
52675;DHT22;38569;52.722;6.440;2023-05-10T02:08:10;12.60;99.90
52675;DHT22;38569;52.722;6.440;2023-05-10T02:10:37;12.60;99.90
52675;DHT22;38569;52.722;6.440;2023-05-10T02:13:03;12.60;99.90
52675;DHT22;38569;52.722;6.440;2023-05-10T02:15:32;12.60;99.90
52675;DHT22;38569;52.722;6.440;2023-05-10T02:18:00;12.60;99.90
52675;DHT22;38569;52.722;6.440;2023-05-10T02:20:28;12.60;99.90
52675;DHT22;38569;52.722;6.440;2023-05-10T02:22:57;12.60;99.90
52675;DHT22;38569;52.722;6.440;2023-05-10T02:25:23;12.60;99.90
52675;DHT22;38569;52.722;6.440;2023-05-10T02:27:53;12.60;99.90
52675;DHT22;38569;52.722;6.440;2023-05-10T02:30:20;12.60;99.90
52675;DHT22;38569;52.722;6.440;2023-05-10T02:32:48;12.60;99.90
52675;DHT22;38569;52.722;6.440;2023-05-10T02:35:14;12.60;99.90
52675;DHT22;38569;52.722;6.440;2023-05-10T02:37:41;12.60;99.90
52675;DHT22;38569;52.722;6.440;2023-05-10T02:40:08;12.60;99.90
52675;DHT22;38569;52.722;6.440;2023-05-10T02:42:37;12.60;99.90
52675;DHT22;38569;52.722;6.440;2023-05-10T02:45:10;12.60;99.90
52675;DHT22;38569;52.722;6.440;2023-05-10T02:47:36;12.60;99.90
52675;DHT22;38569;52.722;6.440;2023-05-10T02:50:02;12.60;99.90
52675;DHT22;38569;52.722;6.440;2023-05-10T02:52:42;12.60;99.90
52675;DHT22;38569;52.722;6.440;2023-05-10T02:55:11;12.70;99.90
52675;DHT22;38569;52.722;6.440;2023-05-10T02:57:42;12.60;99.90
52675;DHT22;38569;52.722;6.440;2023-05-10T03:00:09;12.70;99.90
52675;DHT22;38569;52.722;6.440;2023-05-10T03:02:35;12.70;99.90
52675;DHT22;38569;52.722;6.440;2023-05-10T03:05:01;12.70;99.90
52675;DHT22;38569;52.722;6.440;2023-05-10T03:07:28;12.70;99.90
52675;DHT22;38569;52.722;6.440;2023-05-10T03:09:54;12.60;99.90
52675;DHT22;38569;52.722;6.440;2023-05-10T03:12:26;12.60;99.90
52675;DHT22;38569;52.722;6.440;2023-05-10T03:15:21;12.70;99.90
52675;DHT22;38569;52.722;6.440;2023-05-10T03:18:02;12.60;99.90
52675;DHT22;38569;52.722;6.440;2023-05-10T03:20:35;12.60;99.90
52675;DHT22;38569;52.722;6.440;2023-05-10T03:23:09;12.60;99.90
52675;DHT22;38569;52.722;6.440;2023-05-10T03:25:37;12.50;99.90
52675;DHT22;38569;52.722;6.440;2023-05-10T03:28:04;12.50;99.90
52675;DHT22;38569;52.722;6.440;2023-05-10T03:30:30;12.50;99.90
52675;DHT22;38569;52.722;6.440;2023-05-10T03:32:57;12.50;99.90
52675;DHT22;38569;52.722;6.440;2023-05-10T03:35:23;12.50;99.90
52675;DHT22;38569;52.722;6.440;2023-05-10T03:37:49;12.50;99.90
52675;DHT22;38569;52.722;6.440;2023-05-10T03:40:15;12.60;99.90
52675;DHT22;38569;52.722;6.440;2023-05-10T03:42:41;12.60;99.90
52675;DHT22;38569;52.722;6.440;2023-05-10T03:45:07;12.60;99.90
52675;DHT22;38569;52.722;6.440;2023-05-10T03:47:33;12.60;99.90
52675;DHT22;38569;52.722;6.440;2023-05-10T03:49:59;12.60;99.90
52675;DHT22;38569;52.722;6.440;2023-05-10T03:52:24;12.60;99.90
52675;DHT22;38569;52.722;6.440;2023-05-10T03:54:50;12.70;99.90
52675;DHT22;38569;52.722;6.440;2023-05-10T03:57:16;12.70;99.90
52675;DHT22;38569;52.722;6.440;2023-05-10T03:59:42;12.70;99.90
52675;DHT22;38569;52.722;6.440;2023-05-10T04:02:07;12.70;99.90
52675;DHT22;38569;52.722;6.440;2023-05-10T04:04:33;12.70;99.90
52675;DHT22;38569;52.722;6.440;2023-05-10T04:06:59;12.70;99.90
52675;DHT22;38569;52.722;6.440;2023-05-10T04:09:24;12.70;99.90
52675;DHT22;38569;52.722;6.440;2023-05-10T04:11:50;12.70;99.90
52675;DHT22;38569;52.722;6.440;2023-05-10T04:14:16;12.80;99.90
52675;DHT22;38569;52.722;6.440;2023-05-10T04:16:42;12.70;99.90
52675;DHT22;38569;52.722;6.440;2023-05-10T04:19:07;12.70;99.90
52675;DHT22;38569;52.722;6.440;2023-05-10T04:21:33;12.70;99.90
52675;DHT22;38569;52.722;6.440;2023-05-10T04:23:59;12.60;99.90
52675;DHT22;38569;52.722;6.440;2023-05-10T04:26:24;12.60;99.90
52675;DHT22;38569;52.722;6.440;2023-05-10T04:28:50;12.60;99.90
52675;DHT22;38569;52.722;6.440;2023-05-10T04:31:16;12.60;99.90
52675;DHT22;38569;52.722;6.440;2023-05-10T04:33:42;12.60;99.90
52675;DHT22;38569;52.722;6.440;2023-05-10T04:36:08;12.60;99.90
52675;DHT22;38569;52.722;6.440;2023-05-10T04:38:34;12.60;99.90
52675;DHT22;38569;52.722;6.440;2023-05-10T04:41:07;12.60;99.90
52675;DHT22;38569;52.722;6.440;2023-05-10T04:43:33;12.60;99.90
52675;DHT22;38569;52.722;6.440;2023-05-10T04:45:58;12.60;99.90
52675;DHT22;38569;52.722;6.440;2023-05-10T04:48:24;12.60;99.90
52675;DHT22;38569;52.722;6.440;2023-05-10T04:50:51;12.60;99.90
52675;DHT22;38569;52.722;6.440;2023-05-10T04:53:17;12.60;99.90
52675;DHT22;38569;52.722;6.440;2023-05-10T04:55:43;12.60;99.90
52675;DHT22;38569;52.722;6.440;2023-05-10T04:58:08;12.50;99.90
52675;DHT22;38569;52.722;6.440;2023-05-10T05:00:34;12.60;99.90
52675;DHT22;38569;52.722;6.440;2023-05-10T05:03:00;12.60;99.90
52675;DHT22;38569;52.722;6.440;2023-05-10T05:05:26;12.60;99.90
52675;DHT22;38569;52.722;6.440;2023-05-10T05:07:52;12.60;99.90
52675;DHT22;38569;52.722;6.440;2023-05-10T05:10:17;12.60;99.90
52675;DHT22;38569;52.722;6.440;2023-05-10T05:12:43;12.60;99.90
52675;DHT22;38569;52.722;6.440;2023-05-10T05:15:09;12.60;99.90
52675;DHT22;38569;52.722;6.440;2023-05-10T05:17:35;12.50;99.90
52675;DHT22;38569;52.722;6.440;2023-05-10T05:20:01;12.60;99.90
52675;DHT22;38569;52.722;6.440;2023-05-10T05:22:27;12.70;99.90
52675;DHT22;38569;52.722;6.440;2023-05-10T05:24:54;12.70;99.90
52675;DHT22;38569;52.722;6.440;2023-05-10T05:27:20;12.60;99.90
52675;DHT22;38569;52.722;6.440;2023-05-10T05:29:53;12.60;99.90
52675;DHT22;38569;52.722;6.440;2023-05-10T05:32:19;12.70;99.90
52675;DHT22;38569;52.722;6.440;2023-05-10T05:34:45;12.60;99.90
52675;DHT22;38569;52.722;6.440;2023-05-10T05:37:15;12.70;99.90
52675;DHT22;38569;52.722;6.440;2023-05-10T05:39:41;12.70;99.90
52675;DHT22;38569;52.722;6.440;2023-05-10T05:42:08;12.70;99.90
52675;DHT22;38569;52.722;6.440;2023-05-10T05:44:34;12.70;99.90
52675;DHT22;38569;52.722;6.440;2023-05-10T05:47:00;12.70;99.90
52675;DHT22;38569;52.722;6.440;2023-05-10T05:49:25;12.80;99.90
52675;DHT22;38569;52.722;6.440;2023-05-10T05:51:51;12.80;99.90
52675;DHT22;38569;52.722;6.440;2023-05-10T05:54:17;12.90;99.90
52675;DHT22;38569;52.722;6.440;2023-05-10T05:56:42;12.90;99.90
52675;DHT22;38569;52.722;6.440;2023-05-10T05:59:10;12.90;99.90
52675;DHT22;38569;52.722;6.440;2023-05-10T06:01:35;13.00;99.90
52675;DHT22;38569;52.722;6.440;2023-05-10T06:04:01;13.00;99.90
52675;DHT22;38569;52.722;6.440;2023-05-10T06:06:27;13.10;99.90
52675;DHT22;38569;52.722;6.440;2023-05-10T06:08:53;13.10;99.90
52675;DHT22;38569;52.722;6.440;2023-05-10T06:11:19;13.20;99.90
52675;DHT22;38569;52.722;6.440;2023-05-10T06:13:46;13.30;99.90
52675;DHT22;38569;52.722;6.440;2023-05-10T06:16:12;13.40;99.90
52675;DHT22;38569;52.722;6.440;2023-05-10T06:18:38;13.50;99.90
52675;DHT22;38569;52.722;6.440;2023-05-10T06:21:04;13.50;99.90
52675;DHT22;38569;52.722;6.440;2023-05-10T06:23:30;13.60;99.90
52675;DHT22;38569;52.722;6.440;2023-05-10T06:25:56;13.70;99.90
52675;DHT22;38569;52.722;6.440;2023-05-10T06:28:21;13.80;99.90
52675;DHT22;38569;52.722;6.440;2023-05-10T06:30:47;13.80;99.90
52675;DHT22;38569;52.722;6.440;2023-05-10T06:33:13;13.90;99.90
52675;DHT22;38569;52.722;6.440;2023-05-10T06:35:39;13.90;99.90
52675;DHT22;38569;52.722;6.440;2023-05-10T06:38:04;13.90;99.90
52675;DHT22;38569;52.722;6.440;2023-05-10T06:40:30;13.90;99.90
52675;DHT22;38569;52.722;6.440;2023-05-10T06:42:56;13.90;99.90
52675;DHT22;38569;52.722;6.440;2023-05-10T06:45:21;13.90;99.90
52675;DHT22;38569;52.722;6.440;2023-05-10T06:47:47;14.00;99.90
52675;DHT22;38569;52.722;6.440;2023-05-10T06:50:13;14.10;99.90
52675;DHT22;38569;52.722;6.440;2023-05-10T06:52:39;14.20;99.90
52675;DHT22;38569;52.722;6.440;2023-05-10T06:55:05;14.30;99.90
52675;DHT22;38569;52.722;6.440;2023-05-10T06:57:31;14.30;99.90
52675;DHT22;38569;52.722;6.440;2023-05-10T06:59:58;14.40;99.90
52675;DHT22;38569;52.722;6.440;2023-05-10T07:02:24;14.40;99.90
52675;DHT22;38569;52.722;6.440;2023-05-10T07:04:50;14.30;99.90
52675;DHT22;38569;52.722;6.440;2023-05-10T07:07:17;14.30;99.90
52675;DHT22;38569;52.722;6.440;2023-05-10T07:09:42;14.20;99.90
52675;DHT22;38569;52.722;6.440;2023-05-10T07:12:08;14.30;99.90
52675;DHT22;38569;52.722;6.440;2023-05-10T07:14:34;14.30;99.90
52675;DHT22;38569;52.722;6.440;2023-05-10T07:16:59;14.30;99.90
52675;DHT22;38569;52.722;6.440;2023-05-10T07:19:25;14.30;99.90
52675;DHT22;38569;52.722;6.440;2023-05-10T07:21:51;14.40;99.90
52675;DHT22;38569;52.722;6.440;2023-05-10T07:24:16;14.50;99.90
52675;DHT22;38569;52.722;6.440;2023-05-10T07:26:43;14.70;99.90
52675;DHT22;38569;52.722;6.440;2023-05-10T07:29:08;14.70;99.90
52675;DHT22;38569;52.722;6.440;2023-05-10T07:31:35;14.70;99.90
52675;DHT22;38569;52.722;6.440;2023-05-10T07:34:01;14.70;99.90
52675;DHT22;38569;52.722;6.440;2023-05-10T07:36:26;14.80;99.90
52675;DHT22;38569;52.722;6.440;2023-05-10T07:38:53;14.80;99.90
52675;DHT22;38569;52.722;6.440;2023-05-10T07:41:18;14.70;99.90
52675;DHT22;38569;52.722;6.440;2023-05-10T07:43:44;14.80;99.90
52675;DHT22;38569;52.722;6.440;2023-05-10T07:46:10;14.80;99.90
52675;DHT22;38569;52.722;6.440;2023-05-10T07:48:37;14.70;99.90
52675;DHT22;38569;52.722;6.440;2023-05-10T07:51:02;14.70;99.90
52675;DHT22;38569;52.722;6.440;2023-05-10T07:53:28;14.60;99.90
52675;DHT22;38569;52.722;6.440;2023-05-10T07:55:57;14.70;99.90
52675;DHT22;38569;52.722;6.440;2023-05-10T07:58:23;14.70;99.90
52675;DHT22;38569;52.722;6.440;2023-05-10T08:00:49;14.80;99.90
52675;DHT22;38569;52.722;6.440;2023-05-10T08:03:15;14.90;99.90
52675;DHT22;38569;52.722;6.440;2023-05-10T08:05:41;15.10;99.90
52675;DHT22;38569;52.722;6.440;2023-05-10T08:08:07;15.40;99.90
52675;DHT22;38569;52.722;6.440;2023-05-10T08:10:32;15.70;99.90
52675;DHT22;38569;52.722;6.440;2023-05-10T08:12:58;16.00;99.90
52675;DHT22;38569;52.722;6.440;2023-05-10T08:15:24;16.10;99.90
52675;DHT22;38569;52.722;6.440;2023-05-10T08:17:51;16.20;99.90
52675;DHT22;38569;52.722;6.440;2023-05-10T08:20:17;16.20;99.90
52675;DHT22;38569;52.722;6.440;2023-05-10T08:22:45;16.20;99.90
52675;DHT22;38569;52.722;6.440;2023-05-10T08:25:11;16.20;99.90
52675;DHT22;38569;52.722;6.440;2023-05-10T08:27:37;16.40;99.90
52675;DHT22;38569;52.722;6.440;2023-05-10T08:30:03;16.30;99.90
52675;DHT22;38569;52.722;6.440;2023-05-10T08:32:28;16.30;99.90
52675;DHT22;38569;52.722;6.440;2023-05-10T08:34:55;16.30;99.90
52675;DHT22;38569;52.722;6.440;2023-05-10T08:37:22;16.40;99.90
52675;DHT22;38569;52.722;6.440;2023-05-10T08:39:48;16.40;99.90
52675;DHT22;38569;52.722;6.440;2023-05-10T08:42:19;16.30;99.90
52675;DHT22;38569;52.722;6.440;2023-05-10T08:44:48;16.30;99.90
52675;DHT22;38569;52.722;6.440;2023-05-10T08:47:15;16.10;99.90
52675;DHT22;38569;52.722;6.440;2023-05-10T08:49:41;15.90;99.90
52675;DHT22;38569;52.722;6.440;2023-05-10T08:52:09;15.90;99.90
52675;DHT22;38569;52.722;6.440;2023-05-10T08:54:36;16.00;99.90
52675;DHT22;38569;52.722;6.440;2023-05-10T08:57:03;16.00;99.90
52675;DHT22;38569;52.722;6.440;2023-05-10T08:59:29;16.10;99.90
52675;DHT22;38569;52.722;6.440;2023-05-10T09:01:57;16.00;99.90
52675;DHT22;38569;52.722;6.440;2023-05-10T09:04:24;16.00;99.90
52675;DHT22;38569;52.722;6.440;2023-05-10T09:06:50;16.00;99.90
52675;DHT22;38569;52.722;6.440;2023-05-10T09:09:17;16.00;99.90
52675;DHT22;38569;52.722;6.440;2023-05-10T09:11:43;16.00;99.90
52675;DHT22;38569;52.722;6.440;2023-05-10T09:14:10;16.10;99.90
52675;DHT22;38569;52.722;6.440;2023-05-10T09:16:38;16.20;99.90
52675;DHT22;38569;52.722;6.440;2023-05-10T09:19:03;16.30;99.90
52675;DHT22;38569;52.722;6.440;2023-05-10T09:21:30;16.40;99.90
52675;DHT22;38569;52.722;6.440;2023-05-10T09:23:56;16.50;99.90
52675;DHT22;38569;52.722;6.440;2023-05-10T09:26:23;16.50;99.90
52675;DHT22;38569;52.722;6.440;2023-05-10T09:28:57;16.50;99.90
52675;DHT22;38569;52.722;6.440;2023-05-10T09:31:23;16.70;99.90
52675;DHT22;38569;52.722;6.440;2023-05-10T09:33:51;16.70;99.90
52675;DHT22;38569;52.722;6.440;2023-05-10T09:36:17;16.90;99.90
52675;DHT22;38569;52.722;6.440;2023-05-10T09:38:49;17.10;99.90
52675;DHT22;38569;52.722;6.440;2023-05-10T09:41:23;17.10;99.90
52675;DHT22;38569;52.722;6.440;2023-05-10T09:43:50;17.00;99.90
52675;DHT22;38569;52.722;6.440;2023-05-10T09:46:20;16.90;99.90
52675;DHT22;38569;52.722;6.440;2023-05-10T09:48:47;16.80;99.90
52675;DHT22;38569;52.722;6.440;2023-05-10T09:51:24;16.80;99.90
52675;DHT22;38569;52.722;6.440;2023-05-10T09:54:10;16.80;99.90
52675;DHT22;38569;52.722;6.440;2023-05-10T09:56:36;16.80;99.90
52675;DHT22;38569;52.722;6.440;2023-05-10T09:59:05;16.80;99.90
52675;DHT22;38569;52.722;6.440;2023-05-10T10:01:31;16.90;99.90
52675;DHT22;38569;52.722;6.440;2023-05-10T10:03:58;17.20;99.90
52675;DHT22;38569;52.722;6.440;2023-05-10T10:06:24;17.30;99.90
52675;DHT22;38569;52.722;6.440;2023-05-10T10:08:51;17.40;99.90
52675;DHT22;38569;52.722;6.440;2023-05-10T10:11:16;17.50;99.90
52675;DHT22;38569;52.722;6.440;2023-05-10T10:13:42;17.50;99.90
52675;DHT22;38569;52.722;6.440;2023-05-10T10:16:08;17.50;99.90
52675;DHT22;38569;52.722;6.440;2023-05-10T10:18:36;17.40;99.90
52675;DHT22;38569;52.722;6.440;2023-05-10T10:21:07;17.30;99.90
52675;DHT22;38569;52.722;6.440;2023-05-10T10:23:34;17.20;99.90
52675;DHT22;38569;52.722;6.440;2023-05-10T10:26:04;17.20;99.90
52675;DHT22;38569;52.722;6.440;2023-05-10T10:28:45;17.20;99.90
52675;DHT22;38569;52.722;6.440;2023-05-10T10:31:35;17.30;99.90
52675;DHT22;38569;52.722;6.440;2023-05-10T10:34:22;17.30;99.90
52675;DHT22;38569;52.722;6.440;2023-05-10T10:36:50;17.40;99.90
52675;DHT22;38569;52.722;6.440;2023-05-10T10:39:16;17.60;99.90
52675;DHT22;38569;52.722;6.440;2023-05-10T10:41:55;17.70;99.90
52675;DHT22;38569;52.722;6.440;2023-05-10T10:49:31;18.00;99.90
52675;DHT22;38569;52.722;6.440;2023-05-10T10:52:21;17.90;99.90
52675;DHT22;38569;52.722;6.440;2023-05-10T10:57:27;17.90;99.90
52675;DHT22;38569;52.722;6.440;2023-05-10T11:00:27;18.10;99.90
52675;DHT22;38569;52.722;6.440;2023-05-10T11:03:09;18.20;99.90
52675;DHT22;38569;52.722;6.440;2023-05-10T11:05:43;18.40;99.90
52675;DHT22;38569;52.722;6.440;2023-05-10T11:08:27;18.50;99.90
52675;DHT22;38569;52.722;6.440;2023-05-10T11:13:31;18.40;99.90
52675;DHT22;38569;52.722;6.440;2023-05-10T11:15:57;18.30;99.90
52675;DHT22;38569;52.722;6.440;2023-05-10T11:18:29;18.30;99.90
52675;DHT22;38569;52.722;6.440;2023-05-10T11:20:59;18.30;99.90
52675;DHT22;38569;52.722;6.440;2023-05-10T11:23:32;18.30;99.90
52675;DHT22;38569;52.722;6.440;2023-05-10T11:26:13;18.20;99.90
52675;DHT22;38569;52.722;6.440;2023-05-10T11:28:46;18.20;99.90
52675;DHT22;38569;52.722;6.440;2023-05-10T11:31:16;18.20;99.90
52675;DHT22;38569;52.722;6.440;2023-05-10T11:33:43;18.30;99.90
52675;DHT22;38569;52.722;6.440;2023-05-10T11:36:18;18.40;99.90
52675;DHT22;38569;52.722;6.440;2023-05-10T11:38:45;18.40;99.90
52675;DHT22;38569;52.722;6.440;2023-05-10T11:41:11;18.40;99.90
52675;DHT22;38569;52.722;6.440;2023-05-10T11:43:41;18.20;99.90
52675;DHT22;38569;52.722;6.440;2023-05-10T11:46:09;18.10;99.90
52675;DHT22;38569;52.722;6.440;2023-05-10T11:48:36;18.10;99.90
52675;DHT22;38569;52.722;6.440;2023-05-10T11:51:02;17.90;99.90
52675;DHT22;38569;52.722;6.440;2023-05-10T11:53:31;17.90;99.90
52675;DHT22;38569;52.722;6.440;2023-05-10T11:56:08;17.70;99.90
52675;DHT22;38569;52.722;6.440;2023-05-10T11:58:34;17.80;99.90
52675;DHT22;38569;52.722;6.440;2023-05-10T12:01:00;17.80;99.90
52675;DHT22;38569;52.722;6.440;2023-05-10T12:03:27;17.80;99.90
52675;DHT22;38569;52.722;6.440;2023-05-10T12:05:54;17.80;99.90
52675;DHT22;38569;52.722;6.440;2023-05-10T12:08:28;17.90;99.90
52675;DHT22;38569;52.722;6.440;2023-05-10T12:11:04;18.00;99.90
52675;DHT22;38569;52.722;6.440;2023-05-10T12:13:30;18.10;99.90
52675;DHT22;38569;52.722;6.440;2023-05-10T12:15:59;18.20;99.90
52675;DHT22;38569;52.722;6.440;2023-05-10T12:18:39;18.30;99.90
52675;DHT22;38569;52.722;6.440;2023-05-10T12:21:05;18.40;99.90
52675;DHT22;38569;52.722;6.440;2023-05-10T12:23:31;18.40;99.90
52675;DHT22;38569;52.722;6.440;2023-05-10T12:26:02;18.40;99.90
52675;DHT22;38569;52.722;6.440;2023-05-10T12:28:30;18.50;99.90
52675;DHT22;38569;52.722;6.440;2023-05-10T12:30:58;18.60;99.90
52675;DHT22;38569;52.722;6.440;2023-05-10T12:33:24;18.70;99.90
52675;DHT22;38569;52.722;6.440;2023-05-10T12:35:54;18.80;99.90
52675;DHT22;38569;52.722;6.440;2023-05-10T12:38:35;18.80;99.90
52675;DHT22;38569;52.722;6.440;2023-05-10T12:41:05;18.80;99.90
52675;DHT22;38569;52.722;6.440;2023-05-10T12:43:31;19.00;99.90
52675;DHT22;38569;52.722;6.440;2023-05-10T12:45:58;19.20;99.90
52675;DHT22;38569;52.722;6.440;2023-05-10T12:48:24;19.40;99.90
52675;DHT22;38569;52.722;6.440;2023-05-10T12:50:49;19.50;99.90
52675;DHT22;38569;52.722;6.440;2023-05-10T12:53:16;19.70;99.90
52675;DHT22;38569;52.722;6.440;2023-05-10T12:55:43;19.80;99.90
52675;DHT22;38569;52.722;6.440;2023-05-10T12:58:09;19.80;99.90
52675;DHT22;38569;52.722;6.440;2023-05-10T13:00:34;19.90;99.90
52675;DHT22;38569;52.722;6.440;2023-05-10T13:03:00;20.00;99.90
52675;DHT22;38569;52.722;6.440;2023-05-10T13:05:26;20.00;99.90
52675;DHT22;38569;52.722;6.440;2023-05-10T13:07:51;20.00;99.90
52675;DHT22;38569;52.722;6.440;2023-05-10T13:10:17;19.90;99.90
52675;DHT22;38569;52.722;6.440;2023-05-10T13:12:43;19.90;99.90
52675;DHT22;38569;52.722;6.440;2023-05-10T13:15:09;19.80;99.90
52675;DHT22;38569;52.722;6.440;2023-05-10T13:17:35;19.80;99.90
52675;DHT22;38569;52.722;6.440;2023-05-10T13:20:00;19.70;99.90
52675;DHT22;38569;52.722;6.440;2023-05-10T13:22:26;19.70;99.90
52675;DHT22;38569;52.722;6.440;2023-05-10T13:24:52;19.60;99.90
52675;DHT22;38569;52.722;6.440;2023-05-10T13:27:17;19.60;99.90
52675;DHT22;38569;52.722;6.440;2023-05-10T13:29:43;19.70;99.90
52675;DHT22;38569;52.722;6.440;2023-05-10T13:32:09;19.70;99.90
52675;DHT22;38569;52.722;6.440;2023-05-10T13:34:34;19.60;99.90
52675;DHT22;38569;52.722;6.440;2023-05-10T13:37:01;19.50;99.90
52675;DHT22;38569;52.722;6.440;2023-05-10T13:39:27;19.50;99.90
52675;DHT22;38569;52.722;6.440;2023-05-10T13:41:53;19.50;99.90
52675;DHT22;38569;52.722;6.440;2023-05-10T13:44:20;19.70;99.90
52675;DHT22;38569;52.722;6.440;2023-05-10T13:46:46;19.80;99.90
52675;DHT22;38569;52.722;6.440;2023-05-10T13:49:12;19.90;99.90
52675;DHT22;38569;52.722;6.440;2023-05-10T13:51:37;19.80;99.90
52675;DHT22;38569;52.722;6.440;2023-05-10T13:54:03;19.80;99.90
52675;DHT22;38569;52.722;6.440;2023-05-10T13:56:29;19.70;99.90
52675;DHT22;38569;52.722;6.440;2023-05-10T13:58:56;19.50;99.90
52675;DHT22;38569;52.722;6.440;2023-05-10T14:01:22;19.40;99.90
52675;DHT22;38569;52.722;6.440;2023-05-10T14:03:48;19.40;99.90
52675;DHT22;38569;52.722;6.440;2023-05-10T14:06:14;19.30;99.90
52675;DHT22;38569;52.722;6.440;2023-05-10T14:08:40;19.40;99.90
52675;DHT22;38569;52.722;6.440;2023-05-10T14:11:05;19.40;99.90
52675;DHT22;38569;52.722;6.440;2023-05-10T14:13:31;19.40;99.90
52675;DHT22;38569;52.722;6.440;2023-05-10T14:15:57;19.30;99.90
52675;DHT22;38569;52.722;6.440;2023-05-10T14:18:24;19.10;99.90
52675;DHT22;38569;52.722;6.440;2023-05-10T14:20:49;18.80;99.90
52675;DHT22;38569;52.722;6.440;2023-05-10T14:23:15;18.50;99.90
52675;DHT22;38569;52.722;6.440;2023-05-10T14:25:41;18.30;99.90
52675;DHT22;38569;52.722;6.440;2023-05-10T14:28:07;18.20;99.90
52675;DHT22;38569;52.722;6.440;2023-05-10T14:30:32;18.20;99.90
52675;DHT22;38569;52.722;6.440;2023-05-10T14:33:01;18.10;99.90
52675;DHT22;38569;52.722;6.440;2023-05-10T14:35:27;18.10;99.90
52675;DHT22;38569;52.722;6.440;2023-05-10T14:37:53;18.10;99.90
52675;DHT22;38569;52.722;6.440;2023-05-10T14:40:19;18.10;99.90
52675;DHT22;38569;52.722;6.440;2023-05-10T14:42:44;18.10;99.90
52675;DHT22;38569;52.722;6.440;2023-05-10T14:45:10;18.20;99.90
52675;DHT22;38569;52.722;6.440;2023-05-10T14:47:36;18.20;99.90
52675;DHT22;38569;52.722;6.440;2023-05-10T14:50:02;18.20;99.90
52675;DHT22;38569;52.722;6.440;2023-05-10T14:52:28;18.20;99.90
52675;DHT22;38569;52.722;6.440;2023-05-10T14:54:54;18.40;99.90
52675;DHT22;38569;52.722;6.440;2023-05-10T14:57:19;18.40;99.90
52675;DHT22;38569;52.722;6.440;2023-05-10T14:59:45;18.40;99.90
52675;DHT22;38569;52.722;6.440;2023-05-10T15:02:11;18.40;99.90
52675;DHT22;38569;52.722;6.440;2023-05-10T15:04:37;18.40;99.90
52675;DHT22;38569;52.722;6.440;2023-05-10T15:07:03;18.40;99.90
52675;DHT22;38569;52.722;6.440;2023-05-10T15:09:28;18.40;99.90
52675;DHT22;38569;52.722;6.440;2023-05-10T15:11:55;18.40;99.90
52675;DHT22;38569;52.722;6.440;2023-05-10T15:14:21;18.40;99.90
52675;DHT22;38569;52.722;6.440;2023-05-10T15:16:47;18.50;99.90
52675;DHT22;38569;52.722;6.440;2023-05-10T15:19:12;18.50;99.90
52675;DHT22;38569;52.722;6.440;2023-05-10T15:21:38;18.50;99.90
52675;DHT22;38569;52.722;6.440;2023-05-10T15:24:07;18.60;99.90
52675;DHT22;38569;52.722;6.440;2023-05-10T15:26:33;18.70;99.90
52675;DHT22;38569;52.722;6.440;2023-05-10T15:28:59;18.80;99.90
52675;DHT22;38569;52.722;6.440;2023-05-10T15:31:25;18.90;99.90
52675;DHT22;38569;52.722;6.440;2023-05-10T15:33:57;19.00;99.90
52675;DHT22;38569;52.722;6.440;2023-05-10T15:36:22;18.90;99.90
52675;DHT22;38569;52.722;6.440;2023-05-10T15:38:48;18.80;99.90
52675;DHT22;38569;52.722;6.440;2023-05-10T15:41:14;18.80;99.90
52675;DHT22;38569;52.722;6.440;2023-05-10T15:43:40;18.80;99.90
52675;DHT22;38569;52.722;6.440;2023-05-10T15:46:06;18.80;99.90
52675;DHT22;38569;52.722;6.440;2023-05-10T15:48:31;18.80;99.90
52675;DHT22;38569;52.722;6.440;2023-05-10T15:50:57;18.80;99.90
52675;DHT22;38569;52.722;6.440;2023-05-10T15:53:23;18.80;99.90
52675;DHT22;38569;52.722;6.440;2023-05-10T15:55:49;19.00;99.90
52675;DHT22;38569;52.722;6.440;2023-05-10T15:58:14;19.10;99.90
52675;DHT22;38569;52.722;6.440;2023-05-10T16:00:41;19.00;99.90
52675;DHT22;38569;52.722;6.440;2023-05-10T16:03:07;19.10;99.90